sensor_id;sensor_type;location;lat;lon;timestamp;temperature;humidity
2409;DHT22;8463;48.094;7.970;2023-11-19T00:03:01;11.60;1.00
2409;DHT22;8463;48.094;7.970;2023-11-19T00:05:27;11.50;1.00
2409;DHT22;8463;48.094;7.970;2023-11-19T00:07:53;11.40;1.00
2409;DHT22;8463;48.094;7.970;2023-11-19T00:10:19;11.30;1.00
2409;DHT22;8463;48.094;7.970;2023-11-19T00:12:46;11.30;1.00
2409;DHT22;8463;48.094;7.970;2023-11-19T00:15:18;11.20;1.00
2409;DHT22;8463;48.094;7.970;2023-11-19T00:17:45;11.20;1.00
2409;DHT22;8463;48.094;7.970;2023-11-19T00:20:12;11.00;1.00
2409;DHT22;8463;48.094;7.970;2023-11-19T00:22:38;11.10;1.00
2409;DHT22;8463;48.094;7.970;2023-11-19T00:25:04;11.00;1.00
2409;DHT22;8463;48.094;7.970;2023-11-19T00:27:31;11.00;1.00
2409;DHT22;8463;48.094;7.970;2023-11-19T00:29:57;11.00;1.00
2409;DHT22;8463;48.094;7.970;2023-11-19T00:32:25;11.00;1.00
2409;DHT22;8463;48.094;7.970;2023-11-19T00:34:51;11.20;1.00
2409;DHT22;8463;48.094;7.970;2023-11-19T00:37:17;11.30;1.00
2409;DHT22;8463;48.094;7.970;2023-11-19T00:39:43;11.30;1.00
2409;DHT22;8463;48.094;7.970;2023-11-19T00:42:11;11.20;1.00
2409;DHT22;8463;48.094;7.970;2023-11-19T00:44:37;11.10;1.00
2409;DHT22;8463;48.094;7.970;2023-11-19T00:47:03;11.10;1.00
2409;DHT22;8463;48.094;7.970;2023-11-19T00:49:29;11.50;1.00
2409;DHT22;8463;48.094;7.970;2023-11-19T00:51:55;11.50;1.00
2409;DHT22;8463;48.094;7.970;2023-11-19T00:54:20;11.50;1.00
2409;DHT22;8463;48.094;7.970;2023-11-19T00:56:46;11.50;1.00
2409;DHT22;8463;48.094;7.970;2023-11-19T00:59:12;11.60;1.00
2409;DHT22;8463;48.094;7.970;2023-11-19T01:01:37;11.60;1.00
2409;DHT22;8463;48.094;7.970;2023-11-19T01:04:06;11.60;1.00
2409;DHT22;8463;48.094;7.970;2023-11-19T01:06:32;11.70;1.00
2409;DHT22;8463;48.094;7.970;2023-11-19T01:08:58;11.90;1.00
2409;DHT22;8463;48.094;7.970;2023-11-19T01:11:24;12.20;1.00
2409;DHT22;8463;48.094;7.970;2023-11-19T01:13:50;12.10;1.00
2409;DHT22;8463;48.094;7.970;2023-11-19T01:16:16;11.90;1.00
2409;DHT22;8463;48.094;7.970;2023-11-19T01:18:42;11.80;1.00
2409;DHT22;8463;48.094;7.970;2023-11-19T01:21:08;11.80;1.00
2409;DHT22;8463;48.094;7.970;2023-11-19T01:23:34;11.70;1.00
2409;DHT22;8463;48.094;7.970;2023-11-19T01:26:00;11.60;1.00
2409;DHT22;8463;48.094;7.970;2023-11-19T01:28:25;11.50;1.00
2409;DHT22;8463;48.094;7.970;2023-11-19T01:30:51;11.60;1.00
2409;DHT22;8463;48.094;7.970;2023-11-19T01:33:17;11.90;1.00
2409;DHT22;8463;48.094;7.970;2023-11-19T01:35:43;11.80;1.00
2409;DHT22;8463;48.094;7.970;2023-11-19T01:38:08;11.70;1.00
2409;DHT22;8463;48.094;7.970;2023-11-19T01:40:34;11.60;1.00
2409;DHT22;8463;48.094;7.970;2023-11-19T01:43:02;11.70;1.00
2409;DHT22;8463;48.094;7.970;2023-11-19T01:45:29;11.70;1.00
2409;DHT22;8463;48.094;7.970;2023-11-19T01:48:00;11.60;1.00
2409;DHT22;8463;48.094;7.970;2023-11-19T01:50:26;11.50;1.00
2409;DHT22;8463;48.094;7.970;2023-11-19T01:52:54;11.70;1.00
2409;DHT22;8463;48.094;7.970;2023-11-19T01:55:24;11.70;1.00
2409;DHT22;8463;48.094;7.970;2023-11-19T01:57:51;11.70;1.00
2409;DHT22;8463;48.094;7.970;2023-11-19T02:00:18;11.60;1.00
2409;DHT22;8463;48.094;7.970;2023-11-19T02:02:46;11.70;1.00
2409;DHT22;8463;48.094;7.970;2023-11-19T02:05:12;11.60;1.00
2409;DHT22;8463;48.094;7.970;2023-11-19T02:07:40;11.60;1.00
2409;DHT22;8463;48.094;7.970;2023-11-19T02:10:06;11.60;1.00
2409;DHT22;8463;48.094;7.970;2023-11-19T02:12:38;11.50;1.00
2409;DHT22;8463;48.094;7.970;2023-11-19T02:15:08;11.40;1.00
2409;DHT22;8463;48.094;7.970;2023-11-19T02:17:34;11.30;1.00
2409;DHT22;8463;48.094;7.970;2023-11-19T02:20:00;11.30;1.00
2409;DHT22;8463;48.094;7.970;2023-11-19T02:22:26;11.40;1.00
2409;DHT22;8463;48.094;7.970;2023-11-19T02:24:56;11.50;1.00
2409;DHT22;8463;48.094;7.970;2023-11-19T02:27:39;11.50;1.00
2409;DHT22;8463;48.094;7.970;2023-11-19T02:30:05;11.50;1.00
2409;DHT22;8463;48.094;7.970;2023-11-19T02:32:34;11.60;1.00
2409;DHT22;8463;48.094;7.970;2023-11-19T02:35:01;11.60;1.00
2409;DHT22;8463;48.094;7.970;2023-11-19T02:37:27;11.60;1.00
2409;DHT22;8463;48.094;7.970;2023-11-19T02:39:53;11.60;1.00
2409;DHT22;8463;48.094;7.970;2023-11-19T02:42:19;11.50;1.00
2409;DHT22;8463;48.094;7.970;2023-11-19T02:44:45;11.40;1.00
2409;DHT22;8463;48.094;7.970;2023-11-19T02:47:11;11.40;1.00
2409;DHT22;8463;48.094;7.970;2023-11-19T02:49:39;11.50;1.00
2409;DHT22;8463;48.094;7.970;2023-11-19T02:52:05;11.40;1.00
2409;DHT22;8463;48.094;7.970;2023-11-19T02:54:35;11.30;1.00
2409;DHT22;8463;48.094;7.970;2023-11-19T02:57:02;11.60;1.00
2409;DHT22;8463;48.094;7.970;2023-11-19T02:59:35;11.50;1.00
2409;DHT22;8463;48.094;7.970;2023-11-19T03:02:05;11.50;1.00
2409;DHT22;8463;48.094;7.970;2023-11-19T03:04:33;11.60;1.00
2409;DHT22;8463;48.094;7.970;2023-11-19T03:06:58;11.60;1.00
2409;DHT22;8463;48.094;7.970;2023-11-19T03:09:24;11.60;1.00
2409;DHT22;8463;48.094;7.970;2023-11-19T03:11:50;11.60;1.00
2409;DHT22;8463;48.094;7.970;2023-11-19T03:14:15;11.60;1.00
2409;DHT22;8463;48.094;7.970;2023-11-19T03:16:45;11.60;1.00
2409;DHT22;8463;48.094;7.970;2023-11-19T03:19:11;11.70;1.00
2409;DHT22;8463;48.094;7.970;2023-11-19T03:21:37;11.70;1.00
2409;DHT22;8463;48.094;7.970;2023-11-19T03:24:03;11.70;1.00
2409;DHT22;8463;48.094;7.970;2023-11-19T03:26:29;11.70;1.00
2409;DHT22;8463;48.094;7.970;2023-11-19T03:28:54;11.70;1.00
2409;DHT22;8463;48.094;7.970;2023-11-19T03:31:22;11.70;1.00
2409;DHT22;8463;48.094;7.970;2023-11-19T03:33:48;11.80;1.00
2409;DHT22;8463;48.094;7.970;2023-11-19T03:36:14;11.90;1.00
2409;DHT22;8463;48.094;7.970;2023-11-19T03:38:39;11.90;1.00
2409;DHT22;8463;48.094;7.970;2023-11-19T03:41:14;11.90;1.00
2409;DHT22;8463;48.094;7.970;2023-11-19T03:43:40;11.90;1.00
2409;DHT22;8463;48.094;7.970;2023-11-19T03:46:21;12.10;1.00
2409;DHT22;8463;48.094;7.970;2023-11-19T03:48:48;11.90;1.00
2409;DHT22;8463;48.094;7.970;2023-11-19T03:51:14;12.10;1.00
2409;DHT22;8463;48.094;7.970;2023-11-19T03:53:44;12.10;1.00
2409;DHT22;8463;48.094;7.970;2023-11-19T03:56:10;12.20;1.00
2409;DHT22;8463;48.094;7.970;2023-11-19T03:58:39;12.10;1.00
2409;DHT22;8463;48.094;7.970;2023-11-19T04:01:05;12.10;1.00
2409;DHT22;8463;48.094;7.970;2023-11-19T04:03:31;12.20;1.00
2409;DHT22;8463;48.094;7.970;2023-11-19T04:05:56;12.20;1.00
2409;DHT22;8463;48.094;7.970;2023-11-19T04:08:22;12.20;1.00
2409;DHT22;8463;48.094;7.970;2023-11-19T04:10:48;12.30;1.00
2409;DHT22;8463;48.094;7.970;2023-11-19T04:13:13;12.20;1.00
2409;DHT22;8463;48.094;7.970;2023-11-19T04:15:39;12.20;1.00
2409;DHT22;8463;48.094;7.970;2023-11-19T04:18:05;12.10;1.00
2409;DHT22;8463;48.094;7.970;2023-11-19T04:20:33;12.30;1.00
2409;DHT22;8463;48.094;7.970;2023-11-19T04:22:58;12.40;1.00
2409;DHT22;8463;48.094;7.970;2023-11-19T04:25:26;12.40;1.00
2409;DHT22;8463;48.094;7.970;2023-11-19T04:27:51;12.40;1.00
2409;DHT22;8463;48.094;7.970;2023-11-19T04:30:17;12.40;1.00
2409;DHT22;8463;48.094;7.970;2023-11-19T04:32:47;12.40;1.00
2409;DHT22;8463;48.094;7.970;2023-11-19T04:35:14;12.40;1.00
2409;DHT22;8463;48.094;7.970;2023-11-19T04:37:41;12.50;1.00
2409;DHT22;8463;48.094;7.970;2023-11-19T04:40:07;12.40;1.00
2409;DHT22;8463;48.094;7.970;2023-11-19T04:42:32;12.40;1.00
2409;DHT22;8463;48.094;7.970;2023-11-19T04:45:00;12.40;1.00
2409;DHT22;8463;48.094;7.970;2023-11-19T04:47:26;12.50;1.00
2409;DHT22;8463;48.094;7.970;2023-11-19T04:49:51;12.50;1.00
2409;DHT22;8463;48.094;7.970;2023-11-19T04:52:17;12.50;1.00
2409;DHT22;8463;48.094;7.970;2023-11-19T04:54:43;12.60;1.00
2409;DHT22;8463;48.094;7.970;2023-11-19T04:57:09;12.60;1.00
2409;DHT22;8463;48.094;7.970;2023-11-19T04:59:36;12.70;1.00
2409;DHT22;8463;48.094;7.970;2023-11-19T05:02:02;12.70;1.00
2409;DHT22;8463;48.094;7.970;2023-11-19T05:04:31;12.70;1.00
2409;DHT22;8463;48.094;7.970;2023-11-19T05:06:57;12.70;1.00
2409;DHT22;8463;48.094;7.970;2023-11-19T05:09:25;12.60;1.00
2409;DHT22;8463;48.094;7.970;2023-11-19T05:11:51;12.80;1.00
2409;DHT22;8463;48.094;7.970;2023-11-19T05:14:17;12.80;1.00
2409;DHT22;8463;48.094;7.970;2023-11-19T05:16:44;12.70;1.00
2409;DHT22;8463;48.094;7.970;2023-11-19T05:19:09;12.80;1.00
2409;DHT22;8463;48.094;7.970;2023-11-19T05:21:35;12.70;1.00
2409;DHT22;8463;48.094;7.970;2023-11-19T05:24:01;12.70;1.00
2409;DHT22;8463;48.094;7.970;2023-11-19T05:26:30;12.70;1.00
2409;DHT22;8463;48.094;7.970;2023-11-19T05:28:55;12.80;1.00
2409;DHT22;8463;48.094;7.970;2023-11-19T05:31:21;12.80;1.00
2409;DHT22;8463;48.094;7.970;2023-11-19T05:33:47;12.90;1.00
2409;DHT22;8463;48.094;7.970;2023-11-19T05:36:13;12.90;1.00
2409;DHT22;8463;48.094;7.970;2023-11-19T05:38:39;12.80;1.00
2409;DHT22;8463;48.094;7.970;2023-11-19T05:41:05;12.80;1.00
2409;DHT22;8463;48.094;7.970;2023-11-19T05:43:31;12.80;1.00
2409;DHT22;8463;48.094;7.970;2023-11-19T05:45:57;12.70;1.00
2409;DHT22;8463;48.094;7.970;2023-11-19T05:48:23;12.80;1.00
2409;DHT22;8463;48.094;7.970;2023-11-19T05:50:49;12.70;1.00
2409;DHT22;8463;48.094;7.970;2023-11-19T05:53:15;12.80;1.00
2409;DHT22;8463;48.094;7.970;2023-11-19T05:55:41;12.80;1.00
2409;DHT22;8463;48.094;7.970;2023-11-19T05:58:36;12.80;1.00
2409;DHT22;8463;48.094;7.970;2023-11-19T06:01:02;12.80;1.00
2409;DHT22;8463;48.094;7.970;2023-11-19T06:03:30;12.80;1.00
2409;DHT22;8463;48.094;7.970;2023-11-19T06:05:55;12.90;1.00
2409;DHT22;8463;48.094;7.970;2023-11-19T06:08:21;12.80;1.00
2409;DHT22;8463;48.094;7.970;2023-11-19T06:10:47;12.90;1.00
2409;DHT22;8463;48.094;7.970;2023-11-19T06:13:13;12.90;1.00
2409;DHT22;8463;48.094;7.970;2023-11-19T06:15:41;12.90;1.00
2409;DHT22;8463;48.094;7.970;2023-11-19T06:18:07;13.00;1.00
2409;DHT22;8463;48.094;7.970;2023-11-19T06:20:33;13.00;1.00
2409;DHT22;8463;48.094;7.970;2023-11-19T06:23:00;13.00;1.00
2409;DHT22;8463;48.094;7.970;2023-11-19T06:25:26;13.00;1.00
2409;DHT22;8463;48.094;7.970;2023-11-19T06:27:52;13.00;1.00
2409;DHT22;8463;48.094;7.970;2023-11-19T06:30:18;13.00;1.00
2409;DHT22;8463;48.094;7.970;2023-11-19T06:32:43;13.00;1.00
2409;DHT22;8463;48.094;7.970;2023-11-19T06:35:09;13.00;1.00
2409;DHT22;8463;48.094;7.970;2023-11-19T06:37:38;13.00;1.00
2409;DHT22;8463;48.094;7.970;2023-11-19T06:40:04;13.00;1.00
2409;DHT22;8463;48.094;7.970;2023-11-19T06:42:30;13.10;1.00
2409;DHT22;8463;48.094;7.970;2023-11-19T06:44:56;13.10;1.00
2409;DHT22;8463;48.094;7.970;2023-11-19T06:47:28;13.10;1.00
2409;DHT22;8463;48.094;7.970;2023-11-19T06:49:54;13.20;1.00
2409;DHT22;8463;48.094;7.970;2023-11-19T06:52:20;13.10;1.00
2409;DHT22;8463;48.094;7.970;2023-11-19T06:54:46;13.10;1.00
2409;DHT22;8463;48.094;7.970;2023-11-19T06:57:12;13.20;1.00
2409;DHT22;8463;48.094;7.970;2023-11-19T06:59:38;13.20;1.00
2409;DHT22;8463;48.094;7.970;2023-11-19T07:02:07;13.20;1.00
2409;DHT22;8463;48.094;7.970;2023-11-19T07:04:32;13.30;1.00
2409;DHT22;8463;48.094;7.970;2023-11-19T07:07:01;13.30;1.00
2409;DHT22;8463;48.094;7.970;2023-11-19T07:09:27;13.30;1.00
2409;DHT22;8463;48.094;7.970;2023-11-19T07:11:52;13.30;1.00
2409;DHT22;8463;48.094;7.970;2023-11-19T07:14:19;13.40;1.00
2409;DHT22;8463;48.094;7.970;2023-11-19T07:16:45;13.40;1.00
2409;DHT22;8463;48.094;7.970;2023-11-19T07:19:15;13.40;1.00
2409;DHT22;8463;48.094;7.970;2023-11-19T07:21:41;13.30;1.00
2409;DHT22;8463;48.094;7.970;2023-11-19T07:24:10;13.30;1.00
2409;DHT22;8463;48.094;7.970;2023-11-19T07:26:39;13.40;1.00
2409;DHT22;8463;48.094;7.970;2023-11-19T07:29:08;13.40;1.00
2409;DHT22;8463;48.094;7.970;2023-11-19T07:31:33;13.40;1.00
2409;DHT22;8463;48.094;7.970;2023-11-19T07:33:59;13.40;1.00
2409;DHT22;8463;48.094;7.970;2023-11-19T07:36:27;13.40;1.00
2409;DHT22;8463;48.094;7.970;2023-11-19T07:38:52;13.40;1.00
2409;DHT22;8463;48.094;7.970;2023-11-19T07:41:18;13.40;1.00
2409;DHT22;8463;48.094;7.970;2023-11-19T07:43:45;13.40;1.00
2409;DHT22;8463;48.094;7.970;2023-11-19T07:46:12;13.40;1.00
2409;DHT22;8463;48.094;7.970;2023-11-19T07:48:41;13.50;1.00
2409;DHT22;8463;48.094;7.970;2023-11-19T07:51:07;13.60;1.00
2409;DHT22;8463;48.094;7.970;2023-11-19T07:53:33;13.60;1.00
2409;DHT22;8463;48.094;7.970;2023-11-19T07:56:00;13.60;1.00
2409;DHT22;8463;48.094;7.970;2023-11-19T07:58:28;13.60;1.00
2409;DHT22;8463;48.094;7.970;2023-11-19T08:00:53;13.60;1.00
2409;DHT22;8463;48.094;7.970;2023-11-19T08:03:19;13.60;1.00
2409;DHT22;8463;48.094;7.970;2023-11-19T08:05:45;13.60;1.00
2409;DHT22;8463;48.094;7.970;2023-11-19T08:08:11;13.60;1.00
2409;DHT22;8463;48.094;7.970;2023-11-19T08:10:37;13.60;1.00
2409;DHT22;8463;48.094;7.970;2023-11-19T08:13:05;13.70;1.00
2409;DHT22;8463;48.094;7.970;2023-11-19T08:15:31;13.60;1.00
2409;DHT22;8463;48.094;7.970;2023-11-19T08:17:57;13.70;1.00
2409;DHT22;8463;48.094;7.970;2023-11-19T08:20:23;13.70;1.00
2409;DHT22;8463;48.094;7.970;2023-11-19T08:22:49;13.80;1.00
2409;DHT22;8463;48.094;7.970;2023-11-19T08:25:15;13.80;1.00
2409;DHT22;8463;48.094;7.970;2023-11-19T08:27:40;13.80;1.00
2409;DHT22;8463;48.094;7.970;2023-11-19T08:30:07;13.80;1.00
2409;DHT22;8463;48.094;7.970;2023-11-19T08:32:33;13.80;1.00
2409;DHT22;8463;48.094;7.970;2023-11-19T08:34:59;13.90;1.00
2409;DHT22;8463;48.094;7.970;2023-11-19T08:37:24;13.90;1.00
2409;DHT22;8463;48.094;7.970;2023-11-19T08:39:50;13.90;1.00
2409;DHT22;8463;48.094;7.970;2023-11-19T08:42:16;13.90;1.00
2409;DHT22;8463;48.094;7.970;2023-11-19T08:44:43;13.90;1.00
2409;DHT22;8463;48.094;7.970;2023-11-19T08:47:17;13.90;1.00
2409;DHT22;8463;48.094;7.970;2023-11-19T08:49:50;14.00;1.00
2409;DHT22;8463;48.094;7.970;2023-11-19T08:52:15;13.90;1.00
2409;DHT22;8463;48.094;7.970;2023-11-19T08:54:43;13.90;1.00
2409;DHT22;8463;48.094;7.970;2023-11-19T08:57:08;13.90;1.00
2409;DHT22;8463;48.094;7.970;2023-11-19T08:59:34;13.90;1.00
2409;DHT22;8463;48.094;7.970;2023-11-19T09:02:00;13.90;1.00
2409;DHT22;8463;48.094;7.970;2023-11-19T09:04:27;14.00;1.00
2409;DHT22;8463;48.094;7.970;2023-11-19T09:06:53;14.00;1.00
2409;DHT22;8463;48.094;7.970;2023-11-19T09:09:20;14.10;1.00
2409;DHT22;8463;48.094;7.970;2023-11-19T09:11:45;14.00;1.00
2409;DHT22;8463;48.094;7.970;2023-11-19T09:14:11;14.10;1.00
2409;DHT22;8463;48.094;7.970;2023-11-19T09:16:37;14.10;1.00
2409;DHT22;8463;48.094;7.970;2023-11-19T09:19:03;14.00;1.00
2409;DHT22;8463;48.094;7.970;2023-11-19T09:21:29;14.00;1.00
2409;DHT22;8463;48.094;7.970;2023-11-19T09:23:57;14.00;1.00
2409;DHT22;8463;48.094;7.970;2023-11-19T09:26:23;14.00;1.00
2409;DHT22;8463;48.094;7.970;2023-11-19T09:28:49;14.00;1.00
2409;DHT22;8463;48.094;7.970;2023-11-19T09:31:15;14.00;1.00
2409;DHT22;8463;48.094;7.970;2023-11-19T09:33:41;14.00;1.00
2409;DHT22;8463;48.094;7.970;2023-11-19T09:36:08;13.90;1.00
2409;DHT22;8463;48.094;7.970;2023-11-19T09:38:34;14.00;1.00
2409;DHT22;8463;48.094;7.970;2023-11-19T09:41:07;13.90;1.00
2409;DHT22;8463;48.094;7.970;2023-11-19T09:43:39;13.90;1.00
2409;DHT22;8463;48.094;7.970;2023-11-19T09:46:06;13.90;1.00
2409;DHT22;8463;48.094;7.970;2023-11-19T09:48:36;13.90;1.00
2409;DHT22;8463;48.094;7.970;2023-11-19T09:51:09;14.00;1.00
2409;DHT22;8463;48.094;7.970;2023-11-19T09:53:35;13.90;1.00
2409;DHT22;8463;48.094;7.970;2023-11-19T09:56:05;14.00;1.00
2409;DHT22;8463;48.094;7.970;2023-11-19T09:58:32;13.90;1.00
2409;DHT22;8463;48.094;7.970;2023-11-19T10:00:58;13.90;1.00
2409;DHT22;8463;48.094;7.970;2023-11-19T10:03:34;13.80;1.00
2409;DHT22;8463;48.094;7.970;2023-11-19T10:06:04;13.70;1.00
2409;DHT22;8463;48.094;7.970;2023-11-19T10:08:32;13.80;1.00
2409;DHT22;8463;48.094;7.970;2023-11-19T10:10:57;13.70;1.00
2409;DHT22;8463;48.094;7.970;2023-11-19T10:13:28;13.70;1.00
2409;DHT22;8463;48.094;7.970;2023-11-19T10:15:55;13.80;1.00
2409;DHT22;8463;48.094;7.970;2023-11-19T10:18:26;13.80;1.00
2409;DHT22;8463;48.094;7.970;2023-11-19T10:20:51;13.80;1.00
2409;DHT22;8463;48.094;7.970;2023-11-19T10:23:17;13.90;1.00
2409;DHT22;8463;48.094;7.970;2023-11-19T10:25:43;13.90;1.00
2409;DHT22;8463;48.094;7.970;2023-11-19T10:28:08;13.90;1.00
2409;DHT22;8463;48.094;7.970;2023-11-19T10:30:34;13.90;1.00
2409;DHT22;8463;48.094;7.970;2023-11-19T10:33:09;13.80;1.00
2409;DHT22;8463;48.094;7.970;2023-11-19T10:35:56;13.90;1.00
2409;DHT22;8463;48.094;7.970;2023-11-19T10:38:23;13.90;1.00
2409;DHT22;8463;48.094;7.970;2023-11-19T10:40:52;13.90;1.00
2409;DHT22;8463;48.094;7.970;2023-11-19T10:43:19;13.90;1.00
2409;DHT22;8463;48.094;7.970;2023-11-19T10:45:46;13.90;1.00
2409;DHT22;8463;48.094;7.970;2023-11-19T10:48:12;13.90;1.00
2409;DHT22;8463;48.094;7.970;2023-11-19T10:50:39;14.00;1.00
2409;DHT22;8463;48.094;7.970;2023-11-19T10:53:06;14.00;1.00
2409;DHT22;8463;48.094;7.970;2023-11-19T10:55:34;14.00;1.00
2409;DHT22;8463;48.094;7.970;2023-11-19T10:58:07;14.10;1.00
2409;DHT22;8463;48.094;7.970;2023-11-19T11:00:54;14.10;1.00
2409;DHT22;8463;48.094;7.970;2023-11-19T11:03:24;14.10;1.00
2409;DHT22;8463;48.094;7.970;2023-11-19T11:05:51;14.10;1.00
2409;DHT22;8463;48.094;7.970;2023-11-19T11:08:18;14.10;1.00
2409;DHT22;8463;48.094;7.970;2023-11-19T11:10:57;14.10;1.00
2409;DHT22;8463;48.094;7.970;2023-11-19T11:13:27;14.10;1.00
2409;DHT22;8463;48.094;7.970;2023-11-19T11:15:56;14.10;1.00
2409;DHT22;8463;48.094;7.970;2023-11-19T11:18:26;14.10;1.00
2409;DHT22;8463;48.094;7.970;2023-11-19T11:20:55;14.10;1.00
2409;DHT22;8463;48.094;7.970;2023-11-19T11:29:05;14.10;1.00
2409;DHT22;8463;48.094;7.970;2023-11-19T11:37:32;14.00;1.00
2409;DHT22;8463;48.094;7.970;2023-11-19T11:40:01;13.90;1.00
2409;DHT22;8463;48.094;7.970;2023-11-19T11:47:23;13.70;1.00
2409;DHT22;8463;48.094;7.970;2023-11-19T11:49:50;13.70;1.00
2409;DHT22;8463;48.094;7.970;2023-11-19T11:52:16;13.60;1.00
2409;DHT22;8463;48.094;7.970;2023-11-19T11:54:42;13.70;1.00
2409;DHT22;8463;48.094;7.970;2023-11-19T11:57:12;13.60;1.00
2409;DHT22;8463;48.094;7.970;2023-11-19T12:02:12;13.60;1.00
2409;DHT22;8463;48.094;7.970;2023-11-19T12:04:39;13.70;1.00
2409;DHT22;8463;48.094;7.970;2023-11-19T12:07:12;13.80;1.00
2409;DHT22;8463;48.094;7.970;2023-11-19T12:09:42;13.80;1.00
2409;DHT22;8463;48.094;7.970;2023-11-19T12:12:28;13.80;1.00
2409;DHT22;8463;48.094;7.970;2023-11-19T12:22:27;13.90;1.00
2409;DHT22;8463;48.094;7.970;2023-11-19T12:24:54;13.90;1.00
2409;DHT22;8463;48.094;7.970;2023-11-19T12:27:22;13.90;1.00
2409;DHT22;8463;48.094;7.970;2023-11-19T12:29:49;13.90;1.00
2409;DHT22;8463;48.094;7.970;2023-11-19T12:32:15;13.90;1.00
2409;DHT22;8463;48.094;7.970;2023-11-19T12:34:40;13.80;1.00
2409;DHT22;8463;48.094;7.970;2023-11-19T12:37:06;13.80;1.00
2409;DHT22;8463;48.094;7.970;2023-11-19T12:39:34;13.90;1.00
2409;DHT22;8463;48.094;7.970;2023-11-19T12:42:01;13.90;1.00
2409;DHT22;8463;48.094;7.970;2023-11-19T12:44:27;14.00;1.00
2409;DHT22;8463;48.094;7.970;2023-11-19T12:47:06;14.10;1.00
2409;DHT22;8463;48.094;7.970;2023-11-19T12:49:33;14.10;1.00
2409;DHT22;8463;48.094;7.970;2023-11-19T12:51:59;14.20;1.00
2409;DHT22;8463;48.094;7.970;2023-11-19T12:54:35;14.20;1.00
2409;DHT22;8463;48.094;7.970;2023-11-19T12:57:01;14.20;1.00
2409;DHT22;8463;48.094;7.970;2023-11-19T12:59:28;14.20;1.00
2409;DHT22;8463;48.094;7.970;2023-11-19T13:01:57;14.20;1.00
2409;DHT22;8463;48.094;7.970;2023-11-19T13:04:23;14.20;1.00
2409;DHT22;8463;48.094;7.970;2023-11-19T13:06:49;14.20;1.00
2409;DHT22;8463;48.094;7.970;2023-11-19T13:09:28;14.20;1.00
2409;DHT22;8463;48.094;7.970;2023-11-19T13:11:55;14.20;1.00
2409;DHT22;8463;48.094;7.970;2023-11-19T13:14:21;14.30;1.00
2409;DHT22;8463;48.094;7.970;2023-11-19T13:16:47;14.20;1.00
2409;DHT22;8463;48.094;7.970;2023-11-19T13:19:14;14.40;1.00
2409;DHT22;8463;48.094;7.970;2023-11-19T13:21:41;14.50;1.00
2409;DHT22;8463;48.094;7.970;2023-11-19T13:24:07;14.70;1.00
2409;DHT22;8463;48.094;7.970;2023-11-19T13:26:33;14.90;1.00
2409;DHT22;8463;48.094;7.970;2023-11-19T13:29:00;15.00;1.00
2409;DHT22;8463;48.094;7.970;2023-11-19T13:31:26;15.00;1.00
2409;DHT22;8463;48.094;7.970;2023-11-19T13:33:51;15.20;1.00
2409;DHT22;8463;48.094;7.970;2023-11-19T13:36:17;15.20;1.00
2409;DHT22;8463;48.094;7.970;2023-11-19T13:38:43;15.20;1.00
2409;DHT22;8463;48.094;7.970;2023-11-19T13:41:12;15.20;1.00
2409;DHT22;8463;48.094;7.970;2023-11-19T13:43:39;15.20;1.00
2409;DHT22;8463;48.094;7.970;2023-11-19T13:46:05;15.50;1.00
2409;DHT22;8463;48.094;7.970;2023-11-19T13:48:31;15.50;1.00
2409;DHT22;8463;48.094;7.970;2023-11-19T13:50:56;15.50;1.00
2409;DHT22;8463;48.094;7.970;2023-11-19T13:53:23;15.50;1.00
2409;DHT22;8463;48.094;7.970;2023-11-19T13:55:51;15.60;1.00
2409;DHT22;8463;48.094;7.970;2023-11-19T13:58:18;15.60;1.00
2409;DHT22;8463;48.094;7.970;2023-11-19T14:00:46;15.60;1.00
2409;DHT22;8463;48.094;7.970;2023-11-19T14:03:12;15.50;1.00
2409;DHT22;8463;48.094;7.970;2023-11-19T14:05:38;15.50;1.00
2409;DHT22;8463;48.094;7.970;2023-11-19T14:08:04;15.60;1.00
2409;DHT22;8463;48.094;7.970;2023-11-19T14:10:40;15.50;1.00
2409;DHT22;8463;48.094;7.970;2023-11-19T14:13:06;15.40;1.00
2409;DHT22;8463;48.094;7.970;2023-11-19T14:15:32;15.40;1.00
2409;DHT22;8463;48.094;7.970;2023-11-19T14:17:58;15.20;1.00
2409;DHT22;8463;48.094;7.970;2023-11-19T14:20:23;15.10;1.00
2409;DHT22;8463;48.094;7.970;2023-11-19T14:22:52;15.10;1.00
2409;DHT22;8463;48.094;7.970;2023-11-19T14:25:18;15.10;1.00
2409;DHT22;8463;48.094;7.970;2023-11-19T14:27:44;15.10;1.00
2409;DHT22;8463;48.094;7.970;2023-11-19T14:32:40;15.00;1.00
2409;DHT22;8463;48.094;7.970;2023-11-19T14:37:33;15.00;1.00
2409;DHT22;8463;48.094;7.970;2023-11-19T14:40:00;14.90;1.00
2409;DHT22;8463;48.094;7.970;2023-11-19T14:42:26;14.90;1.00
2409;DHT22;8463;48.094;7.970;2023-11-19T14:44:52;14.80;1.00
2409;DHT22;8463;48.094;7.970;2023-11-19T14:47:21;14.90;1.00
2409;DHT22;8463;48.094;7.970;2023-11-19T14:49:47;14.80;1.00
2409;DHT22;8463;48.094;7.970;2023-11-19T14:52:13;14.70;1.00
2409;DHT22;8463;48.094;7.970;2023-11-19T14:54:38;14.70;1.00
2409;DHT22;8463;48.094;7.970;2023-11-19T14:57:07;14.70;1.00
2409;DHT22;8463;48.094;7.970;2023-11-19T14:59:36;14.60;1.00
2409;DHT22;8463;48.094;7.970;2023-11-19T15:02:03;14.60;1.00
2409;DHT22;8463;48.094;7.970;2023-11-19T15:04:29;14.60;1.00
2409;DHT22;8463;48.094;7.970;2023-11-19T15:06:58;14.60;1.00
2409;DHT22;8463;48.094;7.970;2023-11-19T15:09:24;14.60;1.00
2409;DHT22;8463;48.094;7.970;2023-11-19T15:11:50;14.50;1.00
2409;DHT22;8463;48.094;7.970;2023-11-19T15:14:16;14.50;1.00
2409;DHT22;8463;48.094;7.970;2023-11-19T15:16:45;14.50;1.00
2409;DHT22;8463;48.094;7.970;2023-11-19T15:19:11;14.30;1.00
2409;DHT22;8463;48.094;7.970;2023-11-19T15:21:41;14.30;1.00
2409;DHT22;8463;48.094;7.970;2023-11-19T15:24:08;14.30;1.00
2409;DHT22;8463;48.094;7.970;2023-11-19T15:26:34;14.30;1.00
2409;DHT22;8463;48.094;7.970;2023-11-19T15:29:04;14.20;1.00
2409;DHT22;8463;48.094;7.970;2023-11-19T15:31:32;14.20;1.00
2409;DHT22;8463;48.094;7.970;2023-11-19T15:33:58;14.20;1.00
2409;DHT22;8463;48.094;7.970;2023-11-19T15:36:26;14.20;1.00
2409;DHT22;8463;48.094;7.970;2023-11-19T15:38:51;14.20;1.00
2409;DHT22;8463;48.094;7.970;2023-11-19T15:41:17;14.20;1.00
2409;DHT22;8463;48.094;7.970;2023-11-19T15:46:09;14.00;1.00
2409;DHT22;8463;48.094;7.970;2023-11-19T15:48:36;14.00;1.00
2409;DHT22;8463;48.094;7.970;2023-11-19T15:51:02;14.00;1.00
2409;DHT22;8463;48.094;7.970;2023-11-19T15:53:31;14.00;1.00
2409;DHT22;8463;48.094;7.970;2023-11-19T15:55:58;13.90;1.00
2409;DHT22;8463;48.094;7.970;2023-11-19T15:58:23;13.90;1.00
2409;DHT22;8463;48.094;7.970;2023-11-19T16:00:49;13.90;1.00
2409;DHT22;8463;48.094;7.970;2023-11-19T16:03:16;13.90;1.00
2409;DHT22;8463;48.094;7.970;2023-11-19T16:05:42;14.00;1.00
2409;DHT22;8463;48.094;7.970;2023-11-19T16:08:07;13.90;1.00
2409;DHT22;8463;48.094;7.970;2023-11-19T16:10:36;13.90;1.00
2409;DHT22;8463;48.094;7.970;2023-11-19T16:13:08;13.80;1.00
2409;DHT22;8463;48.094;7.970;2023-11-19T16:15:34;13.70;1.00
2409;DHT22;8463;48.094;7.970;2023-11-19T16:18:00;13.70;1.00
2409;DHT22;8463;48.094;7.970;2023-11-19T16:20:26;13.70;1.00
2409;DHT22;8463;48.094;7.970;2023-11-19T16:22:54;13.70;1.00
2409;DHT22;8463;48.094;7.970;2023-11-19T16:25:20;13.60;1.00
2409;DHT22;8463;48.094;7.970;2023-11-19T16:27:46;13.70;1.00
2409;DHT22;8463;48.094;7.970;2023-11-19T16:30:12;13.70;1.00
2409;DHT22;8463;48.094;7.970;2023-11-19T16:32:51;13.60;1.00
2409;DHT22;8463;48.094;7.970;2023-11-19T16:35:19;13.70;1.00
2409;DHT22;8463;48.094;7.970;2023-11-19T16:37:51;13.80;1.00
2409;DHT22;8463;48.094;7.970;2023-11-19T16:40:17;13.80;1.00
2409;DHT22;8463;48.094;7.970;2023-11-19T16:42:44;13.70;1.00
2409;DHT22;8463;48.094;7.970;2023-11-19T16:45:14;13.70;1.00
2409;DHT22;8463;48.094;7.970;2023-11-19T16:47:40;13.70;1.00
2409;DHT22;8463;48.094;7.970;2023-11-19T16:50:07;13.70;1.00
2409;DHT22;8463;48.094;7.970;2023-11-19T16:52:44;13.70;1.00